sensor_id;sensor_type;location;lat;lon;timestamp;P1;durP1;ratioP1;P2;durP2;ratioP2
24650;SDS011;12783;48.824;8.662;2023-12-14T00:01:57;3.50;;;1.67;;
24650;SDS011;12783;48.824;8.662;2023-12-14T00:04:24;6.28;;;1.58;;
24650;SDS011;12783;48.824;8.662;2023-12-14T00:06:51;1.73;;;1.00;;
24650;SDS011;12783;48.824;8.662;2023-12-14T00:09:18;4.45;;;1.10;;
24650;SDS011;12783;48.824;8.662;2023-12-14T00:11:45;3.10;;;1.13;;
24650;SDS011;12783;48.824;8.662;2023-12-14T00:14:12;3.05;;;1.08;;
24650;SDS011;12783;48.824;8.662;2023-12-14T00:16:39;1.73;;;1.20;;
24650;SDS011;12783;48.824;8.662;2023-12-14T00:19:07;2.53;;;1.40;;
24650;SDS011;12783;48.824;8.662;2023-12-14T00:21:34;2.38;;;1.17;;
24650;SDS011;12783;48.824;8.662;2023-12-14T00:24:00;2.08;;;1.42;;
24650;SDS011;12783;48.824;8.662;2023-12-14T00:26:27;4.28;;;1.50;;
24650;SDS011;12783;48.824;8.662;2023-12-14T00:28:54;1.88;;;1.45;;
24650;SDS011;12783;48.824;8.662;2023-12-14T00:31:27;2.78;;;1.20;;
24650;SDS011;12783;48.824;8.662;2023-12-14T00:33:54;1.88;;;1.40;;
24650;SDS011;12783;48.824;8.662;2023-12-14T00:36:21;2.83;;;1.30;;
24650;SDS011;12783;48.824;8.662;2023-12-14T00:38:48;3.88;;;1.20;;
24650;SDS011;12783;48.824;8.662;2023-12-14T00:41:15;2.15;;;1.23;;
24650;SDS011;12783;48.824;8.662;2023-12-14T00:43:42;1.70;;;1.20;;
24650;SDS011;12783;48.824;8.662;2023-12-14T00:46:09;1.13;;;0.75;;
24650;SDS011;12783;48.824;8.662;2023-12-14T00:48:37;1.70;;;1.10;;
24650;SDS011;12783;48.824;8.662;2023-12-14T00:51:04;2.35;;;0.90;;
24650;SDS011;12783;48.824;8.662;2023-12-14T00:53:32;1.00;;;0.95;;
24650;SDS011;12783;48.824;8.662;2023-12-14T00:55:59;2.97;;;0.90;;
24650;SDS011;12783;48.824;8.662;2023-12-14T00:58:26;1.63;;;1.02;;
24650;SDS011;12783;48.824;8.662;2023-12-14T01:00:53;1.50;;;1.05;;
24650;SDS011;12783;48.824;8.662;2023-12-14T01:03:21;1.15;;;1.05;;
24650;SDS011;12783;48.824;8.662;2023-12-14T01:05:48;1.60;;;0.70;;
24650;SDS011;12783;48.824;8.662;2023-12-14T01:08:15;1.00;;;0.80;;
24650;SDS011;12783;48.824;8.662;2023-12-14T01:10:43;4.57;;;0.70;;
24650;SDS011;12783;48.824;8.662;2023-12-14T01:13:10;1.23;;;0.90;;
24650;SDS011;12783;48.824;8.662;2023-12-14T01:15:37;2.17;;;0.50;;
24650;SDS011;12783;48.824;8.662;2023-12-14T01:18:04;0.68;;;0.68;;
24650;SDS011;12783;48.824;8.662;2023-12-14T01:20:31;0.52;;;0.52;;
24650;SDS011;12783;48.824;8.662;2023-12-14T01:22:58;3.67;;;0.95;;
24650;SDS011;12783;48.824;8.662;2023-12-14T01:25:26;2.42;;;0.98;;
24650;SDS011;12783;48.824;8.662;2023-12-14T01:27:53;1.75;;;1.10;;
24650;SDS011;12783;48.824;8.662;2023-12-14T01:30:20;3.55;;;1.30;;
24650;SDS011;12783;48.824;8.662;2023-12-14T01:32:47;2.67;;;1.20;;
24650;SDS011;12783;48.824;8.662;2023-12-14T01:35:14;1.25;;;1.02;;
24650;SDS011;12783;48.824;8.662;2023-12-14T01:37:41;1.77;;;1.10;;
24650;SDS011;12783;48.824;8.662;2023-12-14T01:40:08;4.70;;;1.60;;
24650;SDS011;12783;48.824;8.662;2023-12-14T01:42:35;3.33;;;1.55;;
24650;SDS011;12783;48.824;8.662;2023-12-14T01:45:03;3.08;;;1.50;;
24650;SDS011;12783;48.824;8.662;2023-12-14T01:47:31;3.35;;;1.58;;
24650;SDS011;12783;48.824;8.662;2023-12-14T01:49:58;6.88;;;1.35;;
24650;SDS011;12783;48.824;8.662;2023-12-14T01:52:25;2.75;;;1.48;;
24650;SDS011;12783;48.824;8.662;2023-12-14T01:54:52;2.63;;;1.60;;
24650;SDS011;12783;48.824;8.662;2023-12-14T01:57:21;5.60;;;1.58;;
24650;SDS011;12783;48.824;8.662;2023-12-14T01:59:48;5.85;;;1.60;;
24650;SDS011;12783;48.824;8.662;2023-12-14T02:02:15;2.42;;;1.30;;
24650;SDS011;12783;48.824;8.662;2023-12-14T02:04:42;2.38;;;1.60;;
24650;SDS011;12783;48.824;8.662;2023-12-14T02:07:09;1.40;;;1.27;;
24650;SDS011;12783;48.824;8.662;2023-12-14T02:09:36;1.50;;;1.33;;
24650;SDS011;12783;48.824;8.662;2023-12-14T02:12:04;2.45;;;1.45;;
24650;SDS011;12783;48.824;8.662;2023-12-14T02:14:31;2.05;;;1.30;;
24650;SDS011;12783;48.824;8.662;2023-12-14T02:16:58;3.60;;;1.55;;
24650;SDS011;12783;48.824;8.662;2023-12-14T02:19:25;2.30;;;1.38;;
24650;SDS011;12783;48.824;8.662;2023-12-14T02:21:52;1.70;;;1.40;;
24650;SDS011;12783;48.824;8.662;2023-12-14T02:24:19;4.78;;;1.95;;
24650;SDS011;12783;48.824;8.662;2023-12-14T02:26:46;3.15;;;1.48;;
24650;SDS011;12783;48.824;8.662;2023-12-14T02:29:29;2.08;;;1.45;;
24650;SDS011;12783;48.824;8.662;2023-12-14T02:31:56;2.63;;;1.30;;
24650;SDS011;12783;48.824;8.662;2023-12-14T02:34:23;5.28;;;1.65;;
24650;SDS011;12783;48.824;8.662;2023-12-14T02:36:51;1.45;;;1.00;;
24650;SDS011;12783;48.824;8.662;2023-12-14T02:39:19;1.58;;;1.30;;
24650;SDS011;12783;48.824;8.662;2023-12-14T02:41:45;6.93;;;1.35;;
24650;SDS011;12783;48.824;8.662;2023-12-14T02:44:12;4.35;;;1.30;;
24650;SDS011;12783;48.824;8.662;2023-12-14T02:46:39;2.13;;;1.30;;
24650;SDS011;12783;48.824;8.662;2023-12-14T02:49:06;2.58;;;1.40;;
24650;SDS011;12783;48.824;8.662;2023-12-14T02:51:33;0.98;;;0.85;;
24650;SDS011;12783;48.824;8.662;2023-12-14T02:54:00;2.95;;;1.48;;
24650;SDS011;12783;48.824;8.662;2023-12-14T02:56:27;2.78;;;1.30;;
24650;SDS011;12783;48.824;8.662;2023-12-14T02:58:54;1.40;;;1.20;;
24650;SDS011;12783;48.824;8.662;2023-12-14T03:01:21;1.58;;;1.40;;
24650;SDS011;12783;48.824;8.662;2023-12-14T03:03:48;2.00;;;1.42;;
24650;SDS011;12783;48.824;8.662;2023-12-14T03:06:15;2.08;;;1.40;;
24650;SDS011;12783;48.824;8.662;2023-12-14T03:08:41;1.70;;;1.50;;
24650;SDS011;12783;48.824;8.662;2023-12-14T03:11:08;1.50;;;1.38;;
24650;SDS011;12783;48.824;8.662;2023-12-14T03:13:36;3.85;;;1.90;;
24650;SDS011;12783;48.824;8.662;2023-12-14T03:16:03;6.40;;;1.98;;
24650;SDS011;12783;48.824;8.662;2023-12-14T03:18:30;3.83;;;2.00;;
24650;SDS011;12783;48.824;8.662;2023-12-14T03:20:57;7.82;;;2.10;;
24650;SDS011;12783;48.824;8.662;2023-12-14T03:23:24;2.08;;;1.70;;
24650;SDS011;12783;48.824;8.662;2023-12-14T03:25:51;2.53;;;2.05;;
24650;SDS011;12783;48.824;8.662;2023-12-14T03:28:18;6.55;;;2.38;;
24650;SDS011;12783;48.824;8.662;2023-12-14T03:30:44;12.13;;;2.72;;
24650;SDS011;12783;48.824;8.662;2023-12-14T03:33:12;2.95;;;2.15;;
24650;SDS011;12783;48.824;8.662;2023-12-14T03:35:38;3.78;;;2.30;;
24650;SDS011;12783;48.824;8.662;2023-12-14T03:38:08;7.80;;;2.17;;
24650;SDS011;12783;48.824;8.662;2023-12-14T03:40:35;3.05;;;2.08;;
24650;SDS011;12783;48.824;8.662;2023-12-14T03:43:02;3.75;;;2.33;;
24650;SDS011;12783;48.824;8.662;2023-12-14T03:45:29;4.63;;;2.45;;
24650;SDS011;12783;48.824;8.662;2023-12-14T03:47:56;2.50;;;1.90;;
24650;SDS011;12783;48.824;8.662;2023-12-14T03:50:23;3.58;;;2.03;;
24650;SDS011;12783;48.824;8.662;2023-12-14T03:52:50;2.28;;;1.52;;
24650;SDS011;12783;48.824;8.662;2023-12-14T03:55:17;1.35;;;1.17;;
24650;SDS011;12783;48.824;8.662;2023-12-14T03:57:44;2.17;;;1.10;;
24650;SDS011;12783;48.824;8.662;2023-12-14T04:00:11;2.35;;;1.52;;
24650;SDS011;12783;48.824;8.662;2023-12-14T04:02:40;2.95;;;1.50;;
24650;SDS011;12783;48.824;8.662;2023-12-14T04:05:07;7.32;;;1.40;;
24650;SDS011;12783;48.824;8.662;2023-12-14T04:07:36;2.10;;;1.20;;
24650;SDS011;12783;48.824;8.662;2023-12-14T04:10:07;9.63;;;1.38;;
24650;SDS011;12783;48.824;8.662;2023-12-14T04:12:35;1.27;;;1.02;;
24650;SDS011;12783;48.824;8.662;2023-12-14T04:15:04;4.22;;;1.10;;
24650;SDS011;12783;48.824;8.662;2023-12-14T04:17:32;1.80;;;0.90;;
24650;SDS011;12783;48.824;8.662;2023-12-14T04:20:00;0.98;;;0.73;;
24650;SDS011;12783;48.824;8.662;2023-12-14T04:22:29;1.05;;;0.70;;
24650;SDS011;12783;48.824;8.662;2023-12-14T04:24:56;0.50;;;0.50;;
24650;SDS011;12783;48.824;8.662;2023-12-14T04:27:22;0.77;;;0.77;;
24650;SDS011;12783;48.824;8.662;2023-12-14T04:29:53;1.10;;;0.85;;
24650;SDS011;12783;48.824;8.662;2023-12-14T04:32:20;1.88;;;1.02;;
24650;SDS011;12783;48.824;8.662;2023-12-14T04:34:47;7.55;;;1.42;;
24650;SDS011;12783;48.824;8.662;2023-12-14T04:37:14;3.80;;;1.35;;
24650;SDS011;12783;48.824;8.662;2023-12-14T04:39:41;4.60;;;1.35;;
24650;SDS011;12783;48.824;8.662;2023-12-14T04:42:08;2.60;;;1.42;;
24650;SDS011;12783;48.824;8.662;2023-12-14T04:44:35;1.65;;;1.23;;
24650;SDS011;12783;48.824;8.662;2023-12-14T04:47:02;1.73;;;1.10;;
24650;SDS011;12783;48.824;8.662;2023-12-14T04:49:29;23.27;;;1.83;;
24650;SDS011;12783;48.824;8.662;2023-12-14T04:51:56;34.28;;;2.30;;
24650;SDS011;12783;48.824;8.662;2023-12-14T04:54:23;66.60;;;3.95;;
24650;SDS011;12783;48.824;8.662;2023-12-14T04:56:50;175.57;;;6.15;;
24650;SDS011;12783;48.824;8.662;2023-12-14T04:59:18;160.88;;;5.07;;
24650;SDS011;12783;48.824;8.662;2023-12-14T05:01:45;228.75;;;6.78;;
24650;SDS011;12783;48.824;8.662;2023-12-14T05:04:11;372.52;;;9.35;;
24650;SDS011;12783;48.824;8.662;2023-12-14T05:06:38;412.95;;;8.63;;
24650;SDS011;12783;48.824;8.662;2023-12-14T05:09:05;224.93;;;5.70;;
24650;SDS011;12783;48.824;8.662;2023-12-14T05:11:33;108.57;;;3.40;;
24650;SDS011;12783;48.824;8.662;2023-12-14T05:14:00;281.00;;;6.50;;
24650;SDS011;12783;48.824;8.662;2023-12-14T05:16:27;281.13;;;7.40;;
24650;SDS011;12783;48.824;8.662;2023-12-14T05:18:54;251.20;;;6.38;;
24650;SDS011;12783;48.824;8.662;2023-12-14T05:21:21;379.60;;;9.18;;
24650;SDS011;12783;48.824;8.662;2023-12-14T05:23:48;376.35;;;8.63;;
24650;SDS011;12783;48.824;8.662;2023-12-14T05:26:15;545.90;;;11.85;;
24650;SDS011;12783;48.824;8.662;2023-12-14T05:28:42;324.08;;;7.85;;
24650;SDS011;12783;48.824;8.662;2023-12-14T05:31:09;352.63;;;8.63;;
24650;SDS011;12783;48.824;8.662;2023-12-14T05:33:36;371.33;;;8.98;;
24650;SDS011;12783;48.824;8.662;2023-12-14T05:36:05;118.15;;;4.28;;
24650;SDS011;12783;48.824;8.662;2023-12-14T05:38:40;247.85;;;7.63;;
24650;SDS011;12783;48.824;8.662;2023-12-14T05:41:08;232.82;;;8.00;;
24650;SDS011;12783;48.824;8.662;2023-12-14T05:43:36;143.52;;;5.25;;
24650;SDS011;12783;48.824;8.662;2023-12-14T05:46:03;214.35;;;6.68;;
24650;SDS011;12783;48.824;8.662;2023-12-14T05:48:31;300.23;;;9.15;;
24650;SDS011;12783;48.824;8.662;2023-12-14T05:50:59;293.15;;;9.20;;
24650;SDS011;12783;48.824;8.662;2023-12-14T05:53:27;569.20;;;14.63;;
24650;SDS011;12783;48.824;8.662;2023-12-14T05:55:54;310.85;;;9.13;;
24650;SDS011;12783;48.824;8.662;2023-12-14T05:58:21;241.27;;;7.03;;
24650;SDS011;12783;48.824;8.662;2023-12-14T06:00:47;86.03;;;3.67;;
24650;SDS011;12783;48.824;8.662;2023-12-14T06:03:14;507.27;;;11.90;;
24650;SDS011;12783;48.824;8.662;2023-12-14T06:05:41;345.48;;;9.50;;
24650;SDS011;12783;48.824;8.662;2023-12-14T06:08:08;217.60;;;6.97;;
24650;SDS011;12783;48.824;8.662;2023-12-14T06:10:35;393.20;;;10.27;;
24650;SDS011;12783;48.824;8.662;2023-12-14T06:13:03;414.38;;;11.65;;
24650;SDS011;12783;48.824;8.662;2023-12-14T06:15:30;334.48;;;7.35;;
24650;SDS011;12783;48.824;8.662;2023-12-14T06:17:56;465.10;;;12.85;;
24650;SDS011;12783;48.824;8.662;2023-12-14T06:20:23;468.05;;;11.50;;
24650;SDS011;12783;48.824;8.662;2023-12-14T06:22:50;618.17;;;15.38;;
24650;SDS011;12783;48.824;8.662;2023-12-14T06:25:18;700.13;;;18.75;;
24650;SDS011;12783;48.824;8.662;2023-12-14T06:27:44;672.80;;;16.92;;
24650;SDS011;12783;48.824;8.662;2023-12-14T06:30:11;707.88;;;19.90;;
24650;SDS011;12783;48.824;8.662;2023-12-14T06:32:38;1031.10;;;28.05;;
24650;SDS011;12783;48.824;8.662;2023-12-14T06:35:06;866.38;;;21.92;;
24650;SDS011;12783;48.824;8.662;2023-12-14T06:37:33;786.97;;;22.73;;
24650;SDS011;12783;48.824;8.662;2023-12-14T06:40:00;784.30;;;23.20;;
24650;SDS011;12783;48.824;8.662;2023-12-14T06:42:27;755.78;;;21.92;;
24650;SDS011;12783;48.824;8.662;2023-12-14T06:44:54;1048.82;;;28.65;;
24650;SDS011;12783;48.824;8.662;2023-12-14T06:47:21;1109.20;;;32.30;;
24650;SDS011;12783;48.824;8.662;2023-12-14T06:52:40;940.92;;;27.67;;
24650;SDS011;12783;48.824;8.662;2023-12-14T06:55:07;951.17;;;26.95;;
24650;SDS011;12783;48.824;8.662;2023-12-14T06:57:35;888.17;;;26.58;;
24650;SDS011;12783;48.824;8.662;2023-12-14T07:00:02;775.97;;;22.05;;
24650;SDS011;12783;48.824;8.662;2023-12-14T07:02:29;1035.72;;;30.02;;
24650;SDS011;12783;48.824;8.662;2023-12-14T07:04:56;891.50;;;23.92;;
24650;SDS011;12783;48.824;8.662;2023-12-14T07:07:23;842.33;;;21.30;;
24650;SDS011;12783;48.824;8.662;2023-12-14T07:09:49;679.08;;;17.38;;
24650;SDS011;12783;48.824;8.662;2023-12-14T07:12:16;475.50;;;12.40;;
24650;SDS011;12783;48.824;8.662;2023-12-14T07:14:44;417.38;;;11.52;;
24650;SDS011;12783;48.824;8.662;2023-12-14T07:17:11;15.48;;;5.00;;
24650;SDS011;12783;48.824;8.662;2023-12-14T07:19:38;25.73;;;4.70;;
24650;SDS011;12783;48.824;8.662;2023-12-14T07:22:05;28.08;;;7.30;;
24650;SDS011;12783;48.824;8.662;2023-12-14T07:24:32;23.42;;;6.00;;
24650;SDS011;12783;48.824;8.662;2023-12-14T07:27:14;48.40;;;6.50;;
24650;SDS011;12783;48.824;8.662;2023-12-14T07:29:40;71.18;;;8.30;;
24650;SDS011;12783;48.824;8.662;2023-12-14T07:32:07;45.40;;;7.47;;
24650;SDS011;12783;48.824;8.662;2023-12-14T07:34:34;25.25;;;7.82;;
24650;SDS011;12783;48.824;8.662;2023-12-14T07:37:01;15.75;;;5.07;;
24650;SDS011;12783;48.824;8.662;2023-12-14T07:39:28;11.93;;;3.35;;
24650;SDS011;12783;48.824;8.662;2023-12-14T07:41:55;8.65;;;2.47;;
24650;SDS011;12783;48.824;8.662;2023-12-14T07:44:22;11.55;;;2.17;;
24650;SDS011;12783;48.824;8.662;2023-12-14T07:46:51;9.27;;;2.70;;
24650;SDS011;12783;48.824;8.662;2023-12-14T07:49:18;4.90;;;2.30;;
24650;SDS011;12783;48.824;8.662;2023-12-14T07:51:46;6.20;;;2.15;;
24650;SDS011;12783;48.824;8.662;2023-12-14T07:54:13;11.00;;;2.15;;
24650;SDS011;12783;48.824;8.662;2023-12-14T07:56:40;3.08;;;1.83;;
24650;SDS011;12783;48.824;8.662;2023-12-14T07:59:07;2.97;;;1.55;;
24650;SDS011;12783;48.824;8.662;2023-12-14T08:01:34;6.68;;;1.98;;
24650;SDS011;12783;48.824;8.662;2023-12-14T08:04:01;8.32;;;2.13;;
24650;SDS011;12783;48.824;8.662;2023-12-14T08:06:28;7.82;;;2.63;;
24650;SDS011;12783;48.824;8.662;2023-12-14T08:08:55;7.82;;;3.25;;
24650;SDS011;12783;48.824;8.662;2023-12-14T08:11:24;11.52;;;3.28;;
24650;SDS011;12783;48.824;8.662;2023-12-14T08:13:51;16.33;;;4.22;;
24650;SDS011;12783;48.824;8.662;2023-12-14T08:16:18;14.63;;;4.30;;
24650;SDS011;12783;48.824;8.662;2023-12-14T08:18:45;14.95;;;5.57;;
24650;SDS011;12783;48.824;8.662;2023-12-14T08:21:14;20.95;;;5.88;;
24650;SDS011;12783;48.824;8.662;2023-12-14T08:23:41;24.30;;;5.82;;
24650;SDS011;12783;48.824;8.662;2023-12-14T08:26:09;22.05;;;6.43;;
24650;SDS011;12783;48.824;8.662;2023-12-14T08:28:38;37.70;;;6.78;;
24650;SDS011;12783;48.824;8.662;2023-12-14T08:31:05;389.30;;;14.88;;
24650;SDS011;12783;48.824;8.662;2023-12-14T08:33:32;71.97;;;8.55;;
24650;SDS011;12783;48.824;8.662;2023-12-14T08:35:59;35.50;;;7.93;;
24650;SDS011;12783;48.824;8.662;2023-12-14T08:38:26;43.33;;;7.93;;
24650;SDS011;12783;48.824;8.662;2023-12-14T08:40:53;181.25;;;12.77;;
24650;SDS011;12783;48.824;8.662;2023-12-14T08:43:20;43.67;;;8.30;;
24650;SDS011;12783;48.824;8.662;2023-12-14T08:45:47;42.60;;;9.15;;
24650;SDS011;12783;48.824;8.662;2023-12-14T08:48:14;30.13;;;8.20;;
24650;SDS011;12783;48.824;8.662;2023-12-14T08:50:41;39.78;;;9.20;;
24650;SDS011;12783;48.824;8.662;2023-12-14T08:53:08;40.00;;;9.43;;
24650;SDS011;12783;48.824;8.662;2023-12-14T08:55:35;36.33;;;7.57;;
24650;SDS011;12783;48.824;8.662;2023-12-14T08:58:02;27.67;;;8.23;;
24650;SDS011;12783;48.824;8.662;2023-12-14T09:00:29;30.77;;;8.07;;
24650;SDS011;12783;48.824;8.662;2023-12-14T09:02:56;32.70;;;8.02;;
24650;SDS011;12783;48.824;8.662;2023-12-14T09:05:23;20.02;;;7.20;;
24650;SDS011;12783;48.824;8.662;2023-12-14T09:07:50;32.45;;;8.55;;
24650;SDS011;12783;48.824;8.662;2023-12-14T09:10:21;21.75;;;7.45;;
24650;SDS011;12783;48.824;8.662;2023-12-14T09:12:49;31.67;;;7.65;;
24650;SDS011;12783;48.824;8.662;2023-12-14T09:15:16;21.65;;;6.93;;
24650;SDS011;12783;48.824;8.662;2023-12-14T09:17:43;26.85;;;7.72;;
24650;SDS011;12783;48.824;8.662;2023-12-14T09:20:10;24.20;;;7.70;;
24650;SDS011;12783;48.824;8.662;2023-12-14T09:22:38;20.67;;;6.82;;
24650;SDS011;12783;48.824;8.662;2023-12-14T09:25:05;20.48;;;6.80;;
24650;SDS011;12783;48.824;8.662;2023-12-14T09:27:33;19.27;;;5.88;;
24650;SDS011;12783;48.824;8.662;2023-12-14T09:30:01;14.90;;;5.90;;
24650;SDS011;12783;48.824;8.662;2023-12-14T09:32:29;17.45;;;5.40;;
24650;SDS011;12783;48.824;8.662;2023-12-14T09:34:56;17.08;;;5.78;;
24650;SDS011;12783;48.824;8.662;2023-12-14T09:37:23;14.02;;;5.65;;
24650;SDS011;12783;48.824;8.662;2023-12-14T09:39:50;20.75;;;6.03;;
24650;SDS011;12783;48.824;8.662;2023-12-14T09:42:20;18.25;;;6.30;;
24650;SDS011;12783;48.824;8.662;2023-12-14T09:44:47;12.45;;;4.68;;
24650;SDS011;12783;48.824;8.662;2023-12-14T09:47:16;12.57;;;4.65;;
24650;SDS011;12783;48.824;8.662;2023-12-14T09:49:43;13.88;;;3.88;;
24650;SDS011;12783;48.824;8.662;2023-12-14T09:52:12;10.85;;;4.55;;
24650;SDS011;12783;48.824;8.662;2023-12-14T09:54:39;10.70;;;4.82;;
24650;SDS011;12783;48.824;8.662;2023-12-14T09:57:06;9.30;;;3.97;;
24650;SDS011;12783;48.824;8.662;2023-12-14T09:59:32;11.20;;;4.40;;
24650;SDS011;12783;48.824;8.662;2023-12-14T10:02:09;11.20;;;4.18;;
24650;SDS011;12783;48.824;8.662;2023-12-14T10:04:42;5.70;;;3.15;;
24650;SDS011;12783;48.824;8.662;2023-12-14T10:07:09;9.93;;;4.13;;
24650;SDS011;12783;48.824;8.662;2023-12-14T10:09:39;12.32;;;4.85;;
24650;SDS011;12783;48.824;8.662;2023-12-14T10:12:06;10.25;;;4.00;;
24650;SDS011;12783;48.824;8.662;2023-12-14T10:14:35;26.60;;;12.77;;
24650;SDS011;12783;48.824;8.662;2023-12-14T10:17:23;26.45;;;11.82;;
24650;SDS011;12783;48.824;8.662;2023-12-14T10:19:58;24.75;;;11.55;;
24650;SDS011;12783;48.824;8.662;2023-12-14T10:22:29;25.95;;;10.65;;
24650;SDS011;12783;48.824;8.662;2023-12-14T10:24:59;20.55;;;11.15;;
24650;SDS011;12783;48.824;8.662;2023-12-14T10:27:27;21.50;;;9.25;;
24650;SDS011;12783;48.824;8.662;2023-12-14T10:29:55;20.55;;;9.38;;
24650;SDS011;12783;48.824;8.662;2023-12-14T10:32:23;19.27;;;8.90;;
24650;SDS011;12783;48.824;8.662;2023-12-14T10:34:50;15.40;;;8.57;;
24650;SDS011;12783;48.824;8.662;2023-12-14T10:37:17;27.30;;;10.43;;
24650;SDS011;12783;48.824;8.662;2023-12-14T10:39:48;21.38;;;9.80;;
24650;SDS011;12783;48.824;8.662;2023-12-14T10:42:17;21.55;;;9.27;;
24650;SDS011;12783;48.824;8.662;2023-12-14T10:44:48;18.73;;;8.00;;
24650;SDS011;12783;48.824;8.662;2023-12-14T10:47:21;18.13;;;7.38;;
24650;SDS011;12783;48.824;8.662;2023-12-14T10:49:50;19.63;;;7.68;;
24650;SDS011;12783;48.824;8.662;2023-12-14T10:52:18;21.70;;;8.95;;
24650;SDS011;12783;48.824;8.662;2023-12-14T10:54:49;15.15;;;7.47;;
24650;SDS011;12783;48.824;8.662;2023-12-14T10:57:24;26.98;;;10.95;;
24650;SDS011;12783;48.824;8.662;2023-12-14T10:59:57;23.63;;;8.38;;
24650;SDS011;12783;48.824;8.662;2023-12-14T11:10:21;18.10;;;7.32;;
24650;SDS011;12783;48.824;8.662;2023-12-14T11:13:03;16.58;;;8.68;;
24650;SDS011;12783;48.824;8.662;2023-12-14T11:15:50;23.80;;;9.25;;
24650;SDS011;12783;48.824;8.662;2023-12-14T11:20:50;16.48;;;7.20;;
24650;SDS011;12783;48.824;8.662;2023-12-14T11:23:26;16.70;;;8.10;;
24650;SDS011;12783;48.824;8.662;2023-12-14T11:26:05;13.95;;;6.28;;
24650;SDS011;12783;48.824;8.662;2023-12-14T11:28:36;17.70;;;5.68;;
24650;SDS011;12783;48.824;8.662;2023-12-14T11:33:38;15.27;;;5.90;;
24650;SDS011;12783;48.824;8.662;2023-12-14T11:36:10;11.52;;;5.20;;
24650;SDS011;12783;48.824;8.662;2023-12-14T11:38:38;14.13;;;5.93;;
24650;SDS011;12783;48.824;8.662;2023-12-14T11:41:05;18.88;;;5.63;;
24650;SDS011;12783;48.824;8.662;2023-12-14T11:43:38;12.70;;;5.30;;
24650;SDS011;12783;48.824;8.662;2023-12-14T11:46:08;11.25;;;5.07;;
24650;SDS011;12783;48.824;8.662;2023-12-14T11:48:36;12.07;;;4.85;;
24650;SDS011;12783;48.824;8.662;2023-12-14T11:51:04;9.25;;;4.90;;
24650;SDS011;12783;48.824;8.662;2023-12-14T11:53:31;11.40;;;4.70;;
24650;SDS011;12783;48.824;8.662;2023-12-14T11:56:00;11.90;;;5.30;;
24650;SDS011;12783;48.824;8.662;2023-12-14T11:58:28;10.85;;;5.90;;
24650;SDS011;12783;48.824;8.662;2023-12-14T12:03:50;13.57;;;5.63;;
24650;SDS011;12783;48.824;8.662;2023-12-14T12:06:21;12.60;;;5.82;;
24650;SDS011;12783;48.824;8.662;2023-12-14T12:08:55;10.15;;;5.18;;
24650;SDS011;12783;48.824;8.662;2023-12-14T12:11:23;6.15;;;2.60;;
24650;SDS011;12783;48.824;8.662;2023-12-14T12:13:55;10.38;;;3.13;;
24650;SDS011;12783;48.824;8.662;2023-12-14T12:16:24;8.70;;;3.95;;
24650;SDS011;12783;48.824;8.662;2023-12-14T12:18:51;7.63;;;4.25;;
24650;SDS011;12783;48.824;8.662;2023-12-14T12:21:18;13.00;;;5.97;;
24650;SDS011;12783;48.824;8.662;2023-12-14T12:23:45;14.15;;;5.97;;
24650;SDS011;12783;48.824;8.662;2023-12-14T12:26:12;16.33;;;6.30;;
24650;SDS011;12783;48.824;8.662;2023-12-14T12:28:41;12.80;;;6.30;;
24650;SDS011;12783;48.824;8.662;2023-12-14T12:31:08;16.58;;;6.90;;
24650;SDS011;12783;48.824;8.662;2023-12-14T12:33:34;16.38;;;7.05;;
24650;SDS011;12783;48.824;8.662;2023-12-14T12:36:04;21.50;;;9.20;;
24650;SDS011;12783;48.824;8.662;2023-12-14T12:38:32;22.98;;;10.27;;
24650;SDS011;12783;48.824;8.662;2023-12-14T12:41:00;38.38;;;12.95;;
24650;SDS011;12783;48.824;8.662;2023-12-14T12:43:27;34.28;;;11.65;;
24650;SDS011;12783;48.824;8.662;2023-12-14T12:45:54;28.75;;;10.90;;
24650;SDS011;12783;48.824;8.662;2023-12-14T12:48:20;175.93;;;21.83;;
24650;SDS011;12783;48.824;8.662;2023-12-14T12:50:52;49.20;;;17.95;;
24650;SDS011;12783;48.824;8.662;2023-12-14T12:53:19;64.38;;;20.95;;
24650;SDS011;12783;48.824;8.662;2023-12-14T12:55:46;48.00;;;15.43;;
24650;SDS011;12783;48.824;8.662;2023-12-14T12:58:13;77.85;;;16.85;;
24650;SDS011;12783;48.824;8.662;2023-12-14T13:00:41;48.70;;;13.65;;
24650;SDS011;12783;48.824;8.662;2023-12-14T13:03:08;49.45;;;16.63;;
24650;SDS011;12783;48.824;8.662;2023-12-14T13:05:36;58.42;;;17.08;;
24650;SDS011;12783;48.824;8.662;2023-12-14T13:08:03;45.22;;;16.10;;
24650;SDS011;12783;48.824;8.662;2023-12-14T13:10:30;54.50;;;16.98;;
24650;SDS011;12783;48.824;8.662;2023-12-14T13:12:58;62.70;;;18.95;;
24650;SDS011;12783;48.824;8.662;2023-12-14T13:15:26;56.72;;;22.67;;
24650;SDS011;12783;48.824;8.662;2023-12-14T13:17:55;37.05;;;15.38;;
24650;SDS011;12783;48.824;8.662;2023-12-14T13:20:23;36.40;;;14.38;;
24650;SDS011;12783;48.824;8.662;2023-12-14T13:22:50;33.03;;;12.40;;
24650;SDS011;12783;48.824;8.662;2023-12-14T13:25:17;30.40;;;12.32;;
24650;SDS011;12783;48.824;8.662;2023-12-14T13:27:44;29.85;;;11.65;;
24650;SDS011;12783;48.824;8.662;2023-12-14T13:30:11;24.38;;;10.80;;
24650;SDS011;12783;48.824;8.662;2023-12-14T13:32:44;26.75;;;9.93;;
24650;SDS011;12783;48.824;8.662;2023-12-14T13:35:11;17.15;;;6.88;;
24650;SDS011;12783;48.824;8.662;2023-12-14T13:37:38;12.40;;;5.47;;
24650;SDS011;12783;48.824;8.662;2023-12-14T13:40:06;13.10;;;6.03;;
24650;SDS011;12783;48.824;8.662;2023-12-14T13:42:33;12.38;;;5.93;;
24650;SDS011;12783;48.824;8.662;2023-12-14T13:45:11;13.13;;;6.18;;
24650;SDS011;12783;48.824;8.662;2023-12-14T13:47:38;16.13;;;6.28;;
24650;SDS011;12783;48.824;8.662;2023-12-14T13:50:06;19.48;;;9.10;;
24650;SDS011;12783;48.824;8.662;2023-12-14T13:52:35;19.88;;;8.82;;
24650;SDS011;12783;48.824;8.662;2023-12-14T13:55:01;22.73;;;9.38;;
24650;SDS011;12783;48.824;8.662;2023-12-14T13:57:28;20.90;;;8.82;;
24650;SDS011;12783;48.824;8.662;2023-12-14T13:59:55;23.75;;;10.00;;
24650;SDS011;12783;48.824;8.662;2023-12-14T14:02:22;20.42;;;8.77;;
24650;SDS011;12783;48.824;8.662;2023-12-14T14:04:51;18.75;;;7.65;;
24650;SDS011;12783;48.824;8.662;2023-12-14T14:07:18;18.83;;;7.93;;
24650;SDS011;12783;48.824;8.662;2023-12-14T14:09:45;18.40;;;7.90;;
24650;SDS011;12783;48.824;8.662;2023-12-14T14:12:12;20.52;;;7.57;;
24650;SDS011;12783;48.824;8.662;2023-12-14T14:14:39;17.48;;;7.35;;
24650;SDS011;12783;48.824;8.662;2023-12-14T14:17:05;15.73;;;7.63;;
24650;SDS011;12783;48.824;8.662;2023-12-14T14:19:34;16.10;;;7.80;;
24650;SDS011;12783;48.824;8.662;2023-12-14T14:22:01;22.45;;;9.30;;
24650;SDS011;12783;48.824;8.662;2023-12-14T14:24:27;28.13;;;10.43;;
24650;SDS011;12783;48.824;8.662;2023-12-14T14:26:54;26.33;;;9.43;;
24650;SDS011;12783;48.824;8.662;2023-12-14T14:29:21;29.10;;;9.63;;
24650;SDS011;12783;48.824;8.662;2023-12-14T14:31:48;28.58;;;9.35;;
24650;SDS011;12783;48.824;8.662;2023-12-14T14:34:15;27.95;;;10.68;;
24650;SDS011;12783;48.824;8.662;2023-12-14T14:36:42;35.10;;;12.35;;
24650;SDS011;12783;48.824;8.662;2023-12-14T14:39:11;34.92;;;11.52;;
24650;SDS011;12783;48.824;8.662;2023-12-14T14:41:39;35.55;;;10.57;;
24650;SDS011;12783;48.824;8.662;2023-12-14T14:44:05;29.00;;;10.40;;
24650;SDS011;12783;48.824;8.662;2023-12-14T14:46:32;28.45;;;10.25;;
24650;SDS011;12783;48.824;8.662;2023-12-14T14:48:59;32.38;;;9.57;;
24650;SDS011;12783;48.824;8.662;2023-12-14T14:51:28;24.38;;;9.27;;
24650;SDS011;12783;48.824;8.662;2023-12-14T14:53:56;28.65;;;10.65;;
24650;SDS011;12783;48.824;8.662;2023-12-14T14:56:23;31.45;;;10.55;;